Modale, Iowa
Current Conditions -  °F | °C
As of 6:54 AM on Friday 24 Oct 2014 (Local Time) from KTQE Reporting Station
Clear Clear  
Wind Chill: 59°   Ceiling: Unl
Heat Index: 59°   Visibility: 7mi
Dew Point: 56°   Wind: 10mph
Humidity: 90%   Direction: 190°S
Pressure: 29.9"   Gusts: NA
Location:  41.62°N, 96.01°W
Report Text: KTQE 241154Z AUTO 19009KT 7SM CLR 15/13 A2990 RMK AO2 SLP121 T01500133 10150 20094 56012
Loading
Personal Weather Stations






























Interactive Weather Map
Tropical Storm Tracking
New forecast layout! Learn more

10-Day Weather Forecast

Advertisements
Track Severe Weather on mobile